Time;durP1;ratioP1;P1;durP2;ratioP2;P2;SDS_P1;SDS_P2;PMS_P1;PMS_P2;Temp;Humidity;BMP_temperature;BMP_pressure;BME280_temperature;BME280_humidity;BME280_pressure;Samples;Min_cycle;Max_cycle;Signal;HPM_P1;HPM_P2
2022/08/16 00:01:50;;;;;;;20.97;13.10;;;;;;;24.31;100.00;100438.88;5068806;28;20033;-66
2022/08/16 00:04:17;;;;;;;18.37;11.27;;;;;;;24.23;100.00;100439.56;5073589;28;20078;-67
2022/08/16 00:06:42;;;;;;;16.40;11.90;;;;;;;24.11;100.00;100439.22;5068135;28;20033;-66
2022/08/16 00:09:08;;;;;;;18.48;12.80;;;;;;;24.11;100.00;100431.81;5065774;28;20083;-66
2022/08/16 00:11:35;;;;;;;15.13;11.90;;;;;;;24.03;100.00;100435.22;5069153;28;20059;-66
2022/08/16 00:14:05;;;;;;;16.33;12.23;;;;;;;23.99;100.00;100436.88;5064617;28;20025;-66
2022/08/16 00:16:31;;;;;;;21.00;13.57;;;;;;;23.90;100.00;100444.94;5067815;28;20127;-66
2022/08/16 00:18:58;;;;;;;24.63;12.53;;;;;;;23.83;100.00;100444.47;5076318;28;20092;-66
2022/08/16 00:21:25;;;;;;;21.90;13.53;;;;;;;23.78;100.00;100440.72;5070403;28;20052;-67
2022/08/16 00:23:51;;;;;;;20.15;14.07;;;;;;;23.74;100.00;100453.34;5070183;28;20037;-67
2022/08/16 00:26:16;;;;;;;19.50;14.17;;;;;;;23.70;100.00;100443.31;5072730;28;20912;-67
2022/08/16 00:28:42;;;;;;;23.45;14.63;;;;;;;23.58;100.00;100450.00;5076718;28;20048;-67
2022/08/16 00:31:08;;;;;;;20.15;14.15;;;;;;;23.53;100.00;100446.53;5080388;28;20037;-64
2022/08/16 00:33:36;;;;;;;19.58;13.20;;;;;;;23.54;100.00;100459.06;5079660;28;20029;-67
2022/08/16 00:36:02;;;;;;;21.50;14.37;;;;;;;23.52;100.00;100453.09;5094670;28;20101;-66
2022/08/16 00:38:28;;;;;;;21.20;13.80;;;;;;;23.48;100.00;100458.31;5081647;28;20062;-66
2022/08/16 00:40:54;;;;;;;19.77;13.90;;;;;;;23.56;100.00;100462.31;5062224;28;20037;-66
2022/08/16 00:43:24;;;;;;;25.27;13.38;;;;;;;23.43;100.00;100455.66;5063724;28;20056;-65
2022/08/16 00:45:57;;;;;;;25.23;14.00;;;;;;;23.39;100.00;100460.06;5081436;28;20031;-67
2022/08/16 00:48:23;;;;;;;23.83;12.87;;;;;;;23.59;100.00;100467.19;5073077;28;20067;-67
2022/08/16 00:50:50;;;;;;;18.80;13.03;;;;;;;23.45;100.00;100458.91;5080934;28;20023;-66
2022/08/16 00:53:17;;;;;;;18.20;13.23;;;;;;;23.38;100.00;100458.44;5075859;28;20096;-67
2022/08/16 00:55:50;;;;;;;21.93;14.23;;;;;;;23.44;100.00;100455.38;5076452;28;20039;-67
2022/08/16 00:58:18;;;;;;;23.00;13.57;;;;;;;23.42;100.00;100456.75;5075709;28;20037;-68
2022/08/16 01:00:46;;;;;;;22.37;12.87;;;;;;;23.44;100.00;100451.81;5077722;28;20040;-67
2022/08/16 01:03:14;;;;;;;18.27;12.23;;;;;;;23.37;100.00;100462.28;5078059;28;20033;-67
2022/08/16 01:05:42;;;;;;;24.13;13.27;;;;;;;23.39;100.00;100454.63;5077298;28;20092;-67
2022/08/16 01:08:10;;;;;;;16.20;11.77;;;;;;;23.31;100.00;100451.44;5079348;28;20033;-68
2022/08/16 01:10:36;;;;;;;20.43;12.33;;;;;;;23.23;100.00;100457.50;5080289;28;20035;-66
2022/08/16 01:13:23;;;;;;;21.42;13.02;;;;;;;23.25;100.00;100455.31;5080516;28;20037;-67
2022/08/16 01:15:55;;;;;;;20.60;11.57;;;;;;;23.46;100.00;100455.91;5081184;28;20039;-67
2022/08/16 01:18:26;;;;;;;20.93;13.60;;;;;;;23.34;100.00;100463.66;5076009;28;20029;-67
2022/08/16 01:21:17;;;;;;;20.13;12.57;;;;;;;23.42;100.00;100465.78;5080174;28;20037;-67
2022/08/16 01:24:08;;;;;;;23.77;14.67;;;;;;;23.24;100.00;100459.13;5077478;28;20049;-67
2022/08/16 01:26:35;;;;;;;25.60;13.30;;;;;;;23.13;100.00;100457.63;5076149;28;20045;-67
2022/08/16 01:29:08;;;;;;;18.37;12.17;;;;;;;23.23;100.00;100462.94;5075219;28;20033;-67
2022/08/16 01:31:34;;;;;;;23.20;13.33;;;;;;;23.19;100.00;100461.91;5076589;28;20088;-67
2022/08/16 01:34:01;;;;;;;23.80;13.10;;;;;;;23.06;100.00;100469.66;5062907;28;20048;-67
2022/08/16 01:36:28;;;;;;;20.83;12.83;;;;;;;23.18;100.00;100457.56;5079472;28;20047;-67
2022/08/16 01:38:54;;;;;;;25.07;12.97;;;;;;;23.23;100.00;100459.41;5079455;28;20029;-66
2022/08/16 01:41:24;;;;;;;27.73;13.18;;;;;;;23.10;100.00;100469.09;5079063;28;20100;-66
2022/08/16 01:43:52;;;;;;;19.63;12.73;;;;;;;23.04;100.00;100466.41;5062141;28;20108;-68
2022/08/16 01:46:37;;;;;;;14.82;11.68;;;;;;;23.00;100.00;100459.13;5081079;28;20032;-68
2022/08/16 01:49:09;;;;;;;23.43;13.67;;;;;;;22.94;100.00;100452.91;5077778;28;20043;-66
2022/08/16 01:51:35;;;;;;;18.87;13.60;;;;;;;23.02;100.00;100457.72;5079917;28;20048;-67
2022/08/16 01:54:02;;;;;;;18.50;13.30;;;;;;;22.92;100.00;100455.09;5079546;28;20033;-67
2022/08/16 01:56:29;;;;;;;23.60;14.30;;;;;;;22.78;100.00;100453.03;5079542;28;20102;-66
2022/08/16 01:59:00;;;;;;;18.77;13.23;;;;;;;22.81;100.00;100446.22;5079818;28;20025;-67
2022/08/16 02:01:28;;;;;;;23.80;14.93;;;;;;;22.75;100.00;100461.78;5079763;28;20036;-66
2022/08/16 02:03:56;;;;;;;20.13;12.73;;;;;;;22.72;100.00;100462.38;5079995;28;20025;-66
2022/08/16 02:06:21;;;;;;;;;;;;;;;22.75;100.00;100455.53;5079405;28;20028;-67
2022/08/16 02:08:47;;;;;;;19.40;12.67;;;;;;;22.69;100.00;100454.78;5079628;28;19912;-68
2022/08/16 02:11:13;;;;;;;20.90;13.90;;;;;;;22.76;100.00;100465.34;5077095;28;20036;-70
2022/08/16 02:13:41;;;;;;;23.03;14.37;;;;;;;22.57;100.00;100457.06;5079559;28;20040;-67
2022/08/16 02:16:09;;;;;;;21.63;14.30;;;;;;;22.60;100.00;100461.94;5078135;28;20100;-68
2022/08/16 02:18:35;;;;;;;21.87;13.80;;;;;;;22.65;100.00;100456.44;5058924;28;20066;-68
2022/08/16 02:21:02;;;;;;;;;;;;;;;22.62;100.00;100465.19;5077135;28;20029;-67
2022/08/16 02:23:27;;;;;;;19.17;13.07;;;;;;;25.08;100.00;100456.97;5075151;28;19935;-67
2022/08/16 02:25:54;;;;;;;24.35;14.05;;;;;;;23.09;100.00;100448.41;5079848;28;20031;-67
2022/08/16 02:28:23;;;;;;;17.80;12.50;;;;;;;22.95;100.00;100457.25;5072195;28;20984;-68
2022/08/16 02:30:50;;;;;;;22.23;13.73;;;;;;;22.95;100.00;100456.41;5070780;28;20029;-67
2022/08/16 02:33:19;;;;;;;20.73;13.00;;;;;;;22.97;100.00;100465.16;5075713;28;20033;-68
2022/08/16 02:35:45;;;;;;;20.87;13.20;;;;;;;23.15;100.00;100455.41;5058761;28;20085;-68
2022/08/16 02:38:11;;;;;;;24.35;13.75;;;;;;;23.09;100.00;100456.56;5070212;28;20032;-68
2022/08/16 02:40:38;;;;;;;20.10;13.27;;;;;;;23.02;100.00;100452.25;5072052;28;20033;-67
2022/08/16 02:43:05;;;;;;;25.37;15.00;;;;;;;22.74;100.00;100448.47;5077122;28;20040;-68
2022/08/16 02:45:33;;;;;;;22.13;13.70;;;;;;;22.51;100.00;100447.31;5073767;28;20029;-68
2022/08/16 02:47:58;;;;;;;22.45;14.75;;;;;;;22.44;100.00;100447.59;5073463;28;20032;-68
2022/08/16 02:50:25;;;;;;;22.43;14.90;;;;;;;22.33;100.00;100447.69;5077668;28;20134;-68
2022/08/16 02:52:51;;;;;;;26.38;14.15;;;;;;;22.33;100.00;100446.84;5078226;28;20041;-67
2022/08/16 02:55:17;;;;;;;23.27;14.18;;;;;;;22.29;100.00;100443.09;5077708;28;20047;-68
2022/08/16 02:57:43;;;;;;;;;;;;;;;22.21;100.00;100439.06;5074183;28;20029;-68
2022/08/16 03:00:12;;;;;;;22.98;13.65;;;;;;;22.27;100.00;100443.38;5075676;28;19924;-68
2022/08/16 03:02:40;;;;;;;19.57;14.33;;;;;;;22.25;100.00;100440.09;5078051;28;20033;-68
2022/08/16 03:05:12;;;;;;;21.07;14.00;;;;;;;22.13;100.00;100440.47;5079690;28;20087;-68
2022/08/16 03:07:39;;;;;;;23.67;15.03;;;;;;;22.18;100.00;100435.00;5078890;28;20028;-67
2022/08/16 03:10:08;;;;;;;20.63;14.33;;;;;;;22.27;100.00;100443.38;5076805;28;20057;-69
2022/08/16 03:12:36;;;;;;;23.07;15.13;;;;;;;22.41;100.00;100431.81;5063318;28;20024;-70
2022/08/16 03:15:09;;;;;;;24.73;15.40;;;;;;;22.29;100.00;100440.34;5075554;28;20034;-68
2022/08/16 03:17:36;;;;;;;27.40;16.23;;;;;;;22.33;100.00;100434.06;5075017;28;20025;-69
2022/08/16 03:20:05;;;;;;;20.53;15.30;;;;;;;22.22;100.00;100432.50;5075778;28;20052;-68
2022/08/16 03:22:35;;;;;;;26.23;16.60;;;;;;;22.19;100.00;100430.34;5063085;28;20040;-68
2022/08/16 03:25:09;;;;;;;27.50;17.20;;;;;;;21.97;100.00;100426.16;5076461;28;20092;-68
2022/08/16 03:27:37;;;;;;;26.63;18.47;;;;;;;21.90;100.00;100429.19;5075993;28;20436;-68
2022/08/16 03:30:19;;;;;;;24.03;17.03;;;;;;;21.81;100.00;100424.63;5082111;28;20048;-68
2022/08/16 03:32:49;;;;;;;30.43;17.97;;;;;;;21.73;100.00;100436.94;5077671;28;20089;-68
2022/08/16 03:35:16;;;;;;;;;;;;;;;21.66;100.00;100430.97;5061289;28;20071;-69
2022/08/16 03:37:42;;;;;;;29.77;18.52;;;;;;;21.65;100.00;100435.59;5074581;28;19988;-69
2022/08/16 03:40:10;;;;;;;25.50;17.47;;;;;;;21.59;100.00;100436.69;5075025;28;20040;-68
2022/08/16 03:42:37;;;;;;;27.30;17.93;;;;;;;21.53;100.00;100446.78;5077534;28;20040;-67
2022/08/16 03:45:03;;;;;;;31.75;19.10;;;;;;;21.58;100.00;100449.47;5074238;28;20048;-69
2022/08/16 03:47:29;;;;;;;28.15;19.70;;;;;;;21.69;100.00;100454.91;5077226;28;20089;-68
2022/08/16 03:49:56;;;;;;;;;;;;;;;21.56;100.00;100448.94;5075685;28;20088;-69
2022/08/16 03:52:23;;;;;;;28.35;19.00;;;;;;;21.45;100.00;100455.50;5081284;28;19912;-69
2022/08/16 03:54:48;;;;;;;;;;;;;;;21.58;100.00;100457.63;5078995;28;20055;-69
2022/08/16 03:57:14;;;;;;;30.30;18.83;;;;;;;21.46;100.00;100459.88;5080518;28;19912;-68
2022/08/16 03:59:39;;;;;;;32.90;21.17;;;;;;;21.52;100.00;100466.91;5082808;28;20026;-69
2022/08/16 04:02:11;;;;;;;31.37;19.70;;;;;;;21.68;100.00;100461.41;5063014;28;20029;-68
2022/08/16 04:04:39;;;;;;;38.20;19.97;;;;;;;22.66;100.00;100471.69;5082422;28;20025;-68
2022/08/16 04:07:06;;;;;;;32.80;19.93;;;;;;;21.64;100.00;100474.75;5068363;28;20071;-68
2022/08/16 04:09:34;;;;;;;26.73;18.50;;;;;;;21.73;100.00;100472.31;5081896;28;20541;-69
2022/08/16 04:12:00;;;;;;;27.40;19.60;;;;;;;21.50;100.00;100480.00;5084032;28;20033;-69
2022/08/16 04:14:26;;;;;;;28.42;20.00;;;;;;;21.44;100.00;100470.19;5080236;28;20032;-68
2022/08/16 04:16:52;;;;;;;32.87;21.07;;;;;;;21.58;100.00;100479.41;5081271;28;20075;-68
2022/08/16 04:19:31;;;;;;;34.67;21.10;;;;;;;21.50;100.00;100480.00;5077479;28;20033;-68
2022/08/16 04:21:57;;;;;;;29.33;20.87;;;;;;;21.60;100.00;100485.38;5077003;28;20029;-68
2022/08/16 04:24:25;;;;;;;38.33;24.60;;;;;;;21.61;100.00;100484.28;5098479;28;20032;-68
2022/08/16 04:26:51;;;;;;;30.40;19.88;;;;;;;21.54;100.00;100488.38;5063045;28;20033;-68
2022/08/16 04:29:17;;;;;;;31.50;20.65;;;;;;;21.61;100.00;100488.91;5083893;28;20028;-69
2022/08/16 04:31:43;;;;;;;35.10;22.88;;;;;;;21.53;100.00;100490.31;5080573;28;20048;-68
2022/08/16 04:34:09;;;;;;;32.15;20.98;;;;;;;21.52;100.00;100490.56;5056787;28;20025;-70
2022/08/16 04:36:34;;;;;;;37.10;22.48;;;;;;;21.80;100.00;100499.19;5083493;28;20029;-68
2022/08/16 04:39:01;;;;;;;32.43;21.17;;;;;;;22.27;100.00;100497.03;5072888;28;20044;-68
2022/08/16 04:41:30;;;;;;;31.57;20.90;;;;;;;21.75;100.00;100498.13;5080650;28;20094;-69
2022/08/16 04:43:55;;;;;;;36.37;20.50;;;;;;;21.62;100.00;100501.44;5082751;28;20056;-68
2022/08/16 04:46:21;;;;;;;28.27;19.60;;;;;;;21.62;100.00;100504.94;5080154;28;20041;-68
2022/08/16 04:48:47;;;;;;;32.10;21.27;;;;;;;21.68;100.00;100511.22;5076151;28;20035;-68
2022/08/16 04:51:13;;;;;;;29.60;19.90;;;;;;;21.67;100.00;100503.31;5078759;28;20028;-69
2022/08/16 04:53:42;;;;;;;35.93;21.80;;;;;;;21.62;100.00;100504.16;5079003;28;20029;-69
2022/08/16 04:56:07;;;;;;;36.33;22.75;;;;;;;21.63;100.00;100509.31;5079610;28;20048;-68
2022/08/16 04:58:33;;;;;;;34.47;21.77;;;;;;;21.56;100.00;100503.34;5080798;28;20252;-67
2022/08/16 05:01:00;;;;;;;41.73;22.47;;;;;;;21.57;100.00;100510.41;5078887;28;20025;-68
2022/08/16 05:03:28;;;;;;;32.87;21.03;;;;;;;21.60;100.00;100509.06;5077444;28;20052;-69
2022/08/16 05:05:54;;;;;;;34.88;22.83;;;;;;;21.62;100.00;100510.41;5080907;28;20025;-68
2022/08/16 05:08:22;;;;;;;34.30;23.90;;;;;;;21.63;100.00;100506.56;5079006;28;20064;-68
2022/08/16 05:10:54;;;;;;;34.40;21.23;;;;;;;21.83;100.00;100515.78;5077994;28;20024;-67
2022/08/16 05:13:20;;;;;;;33.13;22.98;;;;;;;21.78;100.00;100522.06;5080410;28;20040;-69
2022/08/16 05:15:46;;;;;;;41.50;21.95;;;;;;;21.83;100.00;100515.78;5081526;28;20037;-70
2022/08/16 05:18:14;;;;;;;30.70;21.10;;;;;;;21.64;100.00;100521.00;5075544;28;20052;-69
2022/08/16 05:20:46;;;;;;;36.30;22.30;;;;;;;22.89;100.00;100521.13;5079329;28;20024;-69
2022/08/16 05:23:16;;;;;;;34.33;22.67;;;;;;;21.82;100.00;100527.75;5078482;28;20025;-69
2022/08/16 05:25:42;;;;;;;33.30;23.07;;;;;;;21.82;100.00;100530.47;5080781;28;20043;-68
2022/08/16 05:28:10;;;;;;;36.30;21.73;;;;;;;22.67;100.00;100529.72;5077796;28;20028;-69
2022/08/16 05:30:39;;;;;;;30.53;20.03;;;;;;;22.27;100.00;100529.72;5079740;28;20056;-69
2022/08/16 05:33:14;;;;;;;33.93;20.10;;;;;;;22.22;100.00;100529.75;5078354;28;20048;-68
2022/08/16 05:35:40;;;;;;;28.25;19.83;;;;;;;22.21;100.00;100531.66;5076345;28;20052;-68
2022/08/16 05:38:26;;;;;;;32.53;20.13;;;;;;;22.10;100.00;100525.44;5080219;28;20033;-68
2022/08/16 05:40:57;;;;;;;28.47;19.83;;;;;;;22.09;100.00;100529.25;5085135;28;20024;-68
2022/08/16 05:43:23;;;;;;;29.50;20.43;;;;;;;22.14;100.00;100536.59;5077665;28;20060;-69
2022/08/16 05:45:50;;;;;;;28.60;20.42;;;;;;;21.97;100.00;100545.13;5075751;28;20037;-70
2022/08/16 05:48:16;;;;;;;35.97;20.57;;;;;;;21.99;100.00;100542.94;5070748;28;20053;-69
2022/08/16 05:50:55;;;;;;;29.00;20.23;;;;;;;21.98;100.00;100544.03;5073755;28;20036;-69
2022/08/16 05:53:21;;;;;;;34.67;22.02;;;;;;;22.16;100.00;100535.22;5061413;28;20043;-69
2022/08/16 05:56:03;;;;;;;32.37;18.87;;;;;;;22.01;100.00;100538.81;5071790;28;20298;-69
2022/08/16 05:58:29;;;;;;;32.38;20.23;;;;;;;22.18;100.00;100533.03;5077604;28;20037;-68
2022/08/16 06:00:55;;;;;;;30.77;21.25;;;;;;;22.15;100.00;100536.34;5078386;28;20038;-69
2022/08/16 06:03:20;;;;;;;35.67;21.42;;;;;;;22.18;100.00;100535.75;5072294;28;20097;-69
2022/08/16 06:06:02;;;;;;;33.27;22.37;;;;;;;22.13;100.00;100543.94;5082631;28;20092;-68
2022/08/16 06:08:30;;;;;;;29.13;20.43;;;;;;;22.28;100.00;100544.97;5083726;28;20040;-70
2022/08/16 06:10:56;;;;;;;37.35;21.73;;;;;;;22.20;100.00;100547.19;5082568;28;20028;-69
2022/08/16 06:13:21;;;;;;;40.55;21.17;;;;;;;22.20;100.00;100563.53;5076598;28;20032;-68
2022/08/16 06:15:50;;;;;;;36.53;22.50;;;;;;;22.19;100.00;100551.00;5078086;28;20043;-68
2022/08/16 06:18:17;;;;;;;39.13;22.73;;;;;;;22.17;100.00;100550.47;5079801;28;20120;-69
2022/08/16 06:20:46;;;;;;;34.77;21.13;;;;;;;22.33;100.00;100551.19;5073402;28;20036;-68
2022/08/16 06:23:17;;;;;;;32.63;23.43;;;;;;;23.02;100.00;100564.06;5077832;28;20059;-68
2022/08/16 06:25:53;;;;;;;35.13;22.92;;;;;;;22.44;100.00;100557.41;5075409;28;20057;-68
2022/08/16 06:28:24;;;;;;;40.63;23.57;;;;;;;22.40;100.00;100558.22;5075090;28;20059;-67
2022/08/16 06:30:50;;;;;;;33.03;23.63;;;;;;;24.04;100.00;100555.09;5073495;28;20058;-68
2022/08/16 06:33:17;;;;;;;35.42;22.33;;;;;;;22.87;100.00;100554.09;5074267;28;20029;-69
2022/08/16 06:35:42;;;;;;;38.03;23.53;;;;;;;23.94;100.00;100560.66;5068526;28;20041;-69
2022/08/16 06:38:08;;;;;;;36.05;23.05;;;;;;;22.87;100.00;100570.47;5075297;28;20163;-69
2022/08/16 06:40:34;;;;;;;32.13;22.17;;;;;;;24.17;100.00;100567.22;5074693;28;20556;-69
2022/08/16 06:43:00;;;;;;;35.92;23.80;;;;;;;23.30;100.00;100563.56;5076183;28;20057;-70
2022/08/16 06:45:41;;;;;;;39.40;23.97;;;;;;;22.79;100.00;100560.19;5075934;28;20032;-69
2022/08/16 06:48:11;;;;;;;38.33;23.40;;;;;;;22.91;100.00;100565.25;5075065;28;20013;-69
2022/08/16 06:50:37;;;;;;;35.65;24.58;;;;;;;22.63;100.00;100576.63;5076844;28;20036;-68
2022/08/16 06:53:06;;;;;;;45.43;26.00;;;;;;;22.47;100.00;100573.19;5072226;28;20028;-69
2022/08/16 06:55:33;;;;;;;35.57;24.50;;;;;;;22.75;100.00;100564.56;5075425;28;20100;-69
2022/08/16 06:58:00;;;;;;;35.27;25.53;;;;;;;22.88;100.00;100568.56;5071224;28;20092;-68
2022/08/16 07:00:27;;;;;;;38.77;24.67;;;;;;;22.88;100.00;100566.63;5074787;28;20095;-68
2022/08/16 07:02:59;;;;;;;38.37;25.23;;;;;;;22.95;100.00;100568.22;5081312;28;20048;-69
2022/08/16 07:05:25;;;;;;;40.47;25.30;;;;;;;22.91;100.00;100571.50;5059509;28;20021;-68
2022/08/16 07:08:10;;;;;;;44.87;26.80;;;;;;;22.95;100.00;100577.22;5072072;28;20037;-69
2022/08/16 07:10:38;;;;;;;45.43;27.00;;;;;;;22.97;100.00;100574.22;5074081;28;20036;-68
2022/08/16 07:13:04;;;;;;;41.47;25.80;;;;;;;23.19;100.00;100581.91;5074234;28;20036;-69
2022/08/16 07:15:33;;;;;;;42.37;26.93;;;;;;;22.95;100.00;100581.84;5077572;28;20052;-67
2022/08/16 07:18:00;;;;;;;46.27;29.50;;;;;;;23.02;100.00;100585.06;5076580;28;20097;-68
2022/08/16 07:20:27;;;;;;;50.93;29.03;;;;;;;23.06;100.00;100589.66;5074785;28;20100;-68
2022/08/16 07:22:56;;;;;;;42.77;29.13;;;;;;;24.50;100.00;100588.34;5077056;28;20025;-70
2022/08/16 07:25:47;;;;;;;48.03;28.83;;;;;;;23.29;100.00;100598.19;5074293;28;20033;-68
2022/08/16 07:28:15;;;;;;;43.47;28.45;;;;;;;23.29;100.00;100598.19;5077603;28;20043;-68
2022/08/16 07:30:42;;;;;;;40.00;28.17;;;;;;;23.55;100.00;100597.16;5060579;28;20037;-68
2022/08/16 07:33:13;;;;;;;46.77;28.40;;;;;;;23.78;100.00;100603.72;5080035;28;20024;-68
2022/08/16 07:35:42;;;;;;;47.40;28.60;;;;;;;23.53;100.00;100592.00;5075722;28;20040;-69
2022/08/16 07:38:08;;;;;;;39.47;27.73;;;;;;;24.30;100.00;100594.91;5071340;28;20048;-69
2022/08/16 07:40:47;;;;;;;38.00;27.60;;;;;;;23.83;100.00;100600.09;5074652;28;20063;-68
2022/08/16 07:43:13;;;;;;;43.20;27.87;;;;;;;23.76;100.00;100605.94;5076385;28;20055;-68
2022/08/16 07:45:39;;;;;;;40.20;27.52;;;;;;;23.88;100.00;100614.53;5077783;28;20057;-68
2022/08/16 07:48:06;;;;;;;44.97;27.67;;;;;;;24.08;100.00;100612.69;5078597;28;20039;-68
2022/08/16 07:50:33;;;;;;;44.40;29.13;;;;;;;24.21;100.00;100605.69;5080114;28;20397;-68
2022/08/16 07:53:00;;;;;;;47.87;29.23;;;;;;;23.85;100.00;100615.09;5082308;28;20031;-69
2022/08/16 07:55:27;;;;;;;40.67;27.63;;;;;;;24.12;100.00;100608.25;5082635;28;20060;-68
2022/08/16 07:57:52;;;;;;;42.47;28.27;;;;;;;24.21;100.00;100619.34;5083339;28;20024;-68
2022/08/16 08:00:19;;;;;;;46.50;30.07;;;;;;;24.13;100.00;100618.06;5084027;28;20048;-68
2022/08/16 08:02:49;;;;;;;48.47;28.17;;;;;;;24.20;100.00;100615.78;5080377;28;20031;-67
2022/08/16 08:05:19;;;;;;;46.07;28.17;;;;;;;24.33;100.00;100618.91;5081789;28;20044;-68
2022/08/16 08:07:45;;;;;;;;;;;;;;;24.30;100.00;100614.03;5079248;28;20058;-68
2022/08/16 08:10:11;;;;;;;49.87;28.33;;;;;;;24.23;100.00;100619.88;5072705;28;19960;-70
2022/08/16 08:12:38;;;;;;;46.23;27.77;;;;;;;24.29;100.00;100623.34;5061097;28;20029;-68
2022/08/16 08:15:06;;;;;;;47.30;26.63;;;;;;;24.31;100.00;100626.59;5073920;28;20031;-68
2022/08/16 08:17:32;;;;;;;42.80;27.33;;;;;;;24.37;100.00;100625.41;5081921;28;20053;-68
2022/08/16 08:20:01;;;;;;;50.97;28.60;;;;;;;24.48;100.00;100626.91;5062487;28;20036;-68
2022/08/16 08:22:31;;;;;;;45.50;28.73;;;;;;;24.72;100.00;100625.19;5078553;28;20056;-68
2022/08/16 08:25:02;;;;;;;38.60;27.40;;;;;;;25.04;100.00;100635.38;5080847;28;20043;-66
2022/08/16 08:27:30;;;;;;;44.27;25.73;;;;;;;26.45;100.00;100656.34;5073731;28;20025;-68
2022/08/16 08:29:56;;;;;;;39.90;24.87;;;;;;;26.18;100.00;100644.31;5077622;28;20033;-67
2022/08/16 08:32:22;;;;;;;38.93;25.27;;;;;;;25.15;100.00;100638.78;5076347;28;20029;-67
2022/08/16 08:34:48;;;;;;;40.13;23.73;;;;;;;25.12;100.00;100644.03;5073471;28;20032;-65
2022/08/16 08:37:13;;;;;;;;;;;;;;;25.58;100.00;100647.91;5076620;28;20032;-67
2022/08/16 08:39:41;;;;;;;84.20;52.60;;;;;;;27.05;100.00;100651.72;5075701;28;19912;-64
2022/08/16 08:42:08;;;;;;;32.13;22.03;;;;;;;26.53;100.00;100651.25;5077490;28;20041;-65
2022/08/16 08:44:36;;;;;;;119.27;75.73;;;;;;;27.20;100.00;100652.44;5076529;28;20044;-64
2022/08/16 08:47:05;;;;;;;41.13;26.37;;;;;;;26.59;100.00;100645.34;5076053;28;20025;-65
2022/08/16 08:49:34;;;;;;;37.77;24.07;;;;;;;25.99;100.00;100654.53;5077369;28;20113;-66
2022/08/16 08:52:03;;;;;;;36.43;21.77;;;;;;;25.80;100.00;100641.75;5077791;28;20024;-65
2022/08/16 08:54:29;;;;;;;36.40;22.87;;;;;;;25.74;100.00;100642.97;5072679;28;20055;-65
2022/08/16 08:56:55;;;;;;;34.60;21.40;;;;;;;25.83;100.00;100643.88;5072285;28;20029;-65
2022/08/16 08:59:35;;;;;;;30.67;21.03;;;;;;;26.34;100.00;100654.94;5074188;28;20039;-65
2022/08/16 09:02:03;;;;;;;34.90;23.50;;;;;;;26.23;100.00;100653.53;5077790;28;20103;-64
2022/08/16 09:04:33;;;;;;;38.63;26.30;;;;;;;26.48;100.00;100654.91;5082478;28;20040;-66
2022/08/16 09:07:03;;;;;;;35.83;24.60;;;;;;;26.60;100.00;100655.19;5076016;28;20072;-65
2022/08/16 09:09:31;;;;;;;33.73;20.90;;;;;;;26.81;100.00;100656.66;5079717;28;20029;-64
2022/08/16 09:11:56;;;;;;;;;;;;;;;26.69;100.00;100658.00;5073121;28;20104;-64
2022/08/16 09:14:23;;;;;;;35.77;19.73;;;;;;;27.10;100.00;100663.69;5076473;28;19923;-65
2022/08/16 09:16:50;;;;;;;35.47;20.20;;;;;;;26.86;100.00;100671.06;5075688;28;20092;-67
2022/08/16 09:19:16;;;;;;;33.17;21.07;;;;;;;27.12;100.00;100680.63;5077891;28;20040;-67
2022/08/16 09:21:42;;;;;;;28.97;19.33;;;;;;;27.43;100.00;100682.59;5073522;28;20137;-67
2022/08/16 09:24:08;;;;;;;36.17;20.20;;;;;;;27.58;100.00;100684.19;5077039;28;20055;-66
2022/08/16 09:26:35;;;;;;;28.65;19.33;;;;;;;28.07;100.00;100689.72;5059024;28;20033;-65
2022/08/16 09:29:01;;;;;;;19.70;15.40;;;;;;;28.36;100.00;100688.38;5076487;28;20043;-66
2022/08/16 09:31:28;;;;;;;48.97;32.40;;;;;;;28.48;100.00;100691.31;5076968;28;20024;-66
2022/08/16 09:33:54;;;;;;;30.83;20.50;;;;;;;28.78;100.00;100690.69;5079644;28;20075;-66
2022/08/16 09:36:21;;;;;;;28.58;17.23;;;;;;;29.29;100.00;100682.72;5076001;28;20088;-65
2022/08/16 09:38:47;;;;;;;65.40;36.90;;;;;;;29.91;100.00;100693.59;5077128;28;20100;-66
2022/08/16 09:41:13;;;;;;;55.50;27.52;;;;;;;30.21;100.00;100688.13;5078467;28;20051;-67
2022/08/16 09:43:41;;;;;;;27.35;18.73;;;;;;;31.16;100.00;100704.31;5061655;28;20063;-67
2022/08/16 09:46:07;;;;;;;31.40;18.90;;;;;;;31.31;100.00;100700.13;5074915;28;20029;-67
2022/08/16 09:48:36;;;;;;;27.52;15.40;;;;;;;31.74;100.00;100711.84;5073566;28;20032;-67
2022/08/16 09:51:01;;;;;;;24.83;14.40;;;;;;;31.47;100.00;100713.28;5074997;28;20033;-67
2022/08/16 09:53:28;;;;;;;29.85;18.38;;;;;;;31.38;100.00;100716.13;5075944;28;20047;-66
2022/08/16 09:55:55;;;;;;;86.57;40.67;;;;;;;31.23;100.00;100714.84;5078510;28;20040;-67
2022/08/16 09:58:23;;;;;;;39.70;24.95;;;;;;;31.94;100.00;100714.88;5076977;28;20049;-66
2022/08/16 10:00:49;;;;;;;43.10;24.38;;;;;;;32.35;100.00;100709.47;5079406;28;20033;-67
2022/08/16 10:03:16;;;;;;;26.77;17.38;;;;;;;32.52;100.00;100721.41;5079408;28;20064;-68
2022/08/16 10:05:42;;;;;;;27.95;15.32;;;;;;;32.42;100.00;100720.75;5073202;28;20064;-66
2022/08/16 10:08:09;;;;;;;23.58;14.25;;;;;;;32.12;100.00;100709.13;5077020;28;20051;-66
2022/08/16 10:10:35;;;;;;;19.02;13.90;;;;;;;32.67;100.00;100717.16;5073228;28;20065;-67
2022/08/16 10:13:13;;;;;;;23.27;13.45;;;;;;;32.52;100.00;100710.34;5077556;28;20037;-68
2022/08/16 10:15:45;;;;;;;19.95;14.07;;;;;;;32.46;100.00;100721.66;5078121;28;20036;-67
2022/08/16 10:18:12;;;;;;;22.95;15.82;;;;;;;32.38;100.00;100716.25;5074834;28;20048;-65
2022/08/16 10:20:44;;;;;;;22.27;14.20;;;;;;;33.78;100.00;100707.53;5078051;28;20039;-66
2022/08/16 10:23:14;;;;;;;24.85;14.07;;;;;;;34.00;100.00;100714.41;5077134;28;20044;-65
2022/08/16 10:25:43;;;;;;;17.77;12.35;;;;;;;34.24;99.48;100704.25;5079742;28;20035;-66
2022/08/16 10:28:10;;;;;;;22.67;13.38;;;;;;;34.90;94.29;100714.81;5080179;28;20035;-66
2022/08/16 10:30:37;;;;;;;20.30;11.88;;;;;;;35.86;88.23;100719.75;5078679;28;20107;-66
2022/08/16 10:33:04;;;;;;;20.38;12.93;;;;;;;35.54;87.33;100719.22;5077618;28;20020;-65
2022/08/16 10:35:29;;;;;;;34.45;19.73;;;;;;;35.84;84.29;100716.56;5071353;28;20057;-66
2022/08/16 10:37:56;;;;;;;25.63;15.13;;;;;;;36.74;80.99;100719.06;5070379;28;20013;-66
2022/08/16 10:40:21;;;;;;;66.05;40.15;;;;;;;36.50;80.35;100721.09;5073801;28;20091;-66
2022/08/16 10:42:48;;;;;;;38.95;21.70;;;;;;;36.66;79.80;100720.16;5074628;28;20039;-66
2022/08/16 10:45:16;;;;;;;26.50;17.42;;;;;;;35.93;83.38;100723.84;5075442;28;20072;-65
2022/08/16 10:47:42;;;;;;;21.83;12.32;;;;;;;36.58;79.26;100722.03;5072916;28;20044;-66
2022/08/16 10:50:10;;;;;;;20.77;13.52;;;;;;;36.10;81.01;100728.09;5070095;28;20040;-66
2022/08/16 10:52:35;;;;;;;15.82;12.95;;;;;;;35.47;85.07;100728.19;5072668;28;20033;-66
2022/08/16 10:55:01;;;;;;;17.48;12.13;;;;;;;34.49;94.60;100722.69;5072060;28;20071;-65
2022/08/16 10:57:30;;;;;;;26.08;13.93;;;;;;;34.07;96.46;100715.75;5074111;28;20111;-66
2022/08/16 10:59:56;;;;;;;23.10;15.15;;;;;;;34.43;95.82;100722.94;5077048;28;20071;-65
2022/08/16 11:02:23;;;;;;;53.08;31.73;;;;;;;33.54;100.00;100725.13;5076723;28;20055;-65
2022/08/16 11:04:50;;;;;;;33.85;22.65;;;;;;;33.31;100.00;100726.50;5079259;28;20026;-64
2022/08/16 11:07:16;;;;;;;29.33;20.33;;;;;;;33.84;100.00;100722.72;5079011;28;20048;-67
2022/08/16 11:09:41;;;;;;;21.75;13.90;;;;;;;32.96;100.00;100724.34;5078282;28;20113;-66